SBI2161 UUDD-URWA
Flight info
| Callsign | SBI2161 |
|---|---|
| Flight time | N/A |
| Altitude | 37000 |
| Route | TOGMO4Q TOGMO M56 ABAGI B105 NATIT DCT MOLED DCT LIDUS G242 ZG ZG5K |
| Aircraft | A320/M-SDFGIJ1RWY/LB1 |
Departure
| Time | 2026-05-04 10:02 |
|---|---|
| Airport | Domodedovo International Airport (UUDD) |
Arrival
| Time | N/A |
|---|---|
| Airport | Astrakhan Narimanovo Boris M. Kustodiev International Airport (URWA) |
| Time | Latitude | Longitude | Altitude | Speed | Heading |
|---|---|---|---|---|---|
| 2026-05-04 09:39 | 55.41110 | 37.89430 | 580 ft | 0 kts | 54° |
| 2026-05-04 09:49 | 55.41083 | 37.89264 | 581 ft | 3 kts | 147° |
| 2026-05-04 09:49 | 55.41102 | 37.89245 | 582 ft | 3 kts | 148° |
| 2026-05-04 09:49 | 55.41108 | 37.89239 | 582 ft | 0 kts | 146° |
| 2026-05-04 09:52 | 55.41106 | 37.89241 | 582 ft | 2 kts | 145° |
| 2026-05-04 09:52 | 55.41067 | 37.89289 | 581 ft | 10 kts | 146° |
| 2026-05-04 09:53 | 55.41006 | 37.89362 | 578 ft | 11 kts | 146° |
| 2026-05-04 09:53 | 55.40936 | 37.89446 | 573 ft | 13 kts | 146° |
| 2026-05-04 09:53 | 55.40857 | 37.89536 | 570 ft | 14 kts | 152° |
| 2026-05-04 09:53 | 55.40788 | 37.89597 | 569 ft | 9 kts | 159° |
| 2026-05-04 09:54 | 55.40744 | 37.89548 | 572 ft | 7 kts | 235° |
| 2026-05-04 09:54 | 55.40718 | 37.89482 | 572 ft | 6 kts | 236° |
| 2026-05-04 09:54 | 55.40693 | 37.89418 | 568 ft | 8 kts | 235° |
| 2026-05-04 09:54 | 55.40646 | 37.89351 | 570 ft | 9 kts | 186° |
| 2026-05-04 09:55 | 55.40594 | 37.89399 | 567 ft | 9 kts | 146° |
| 2026-05-04 09:55 | 55.40544 | 37.89460 | 567 ft | 9 kts | 146° |
| 2026-05-04 09:55 | 55.40493 | 37.89521 | 571 ft | 9 kts | 146° |
| 2026-05-04 09:55 | 55.40443 | 37.89581 | 567 ft | 9 kts | 146° |
| 2026-05-04 09:56 | 55.40393 | 37.89641 | 565 ft | 9 kts | 145° |
| 2026-05-04 09:56 | 55.40343 | 37.89701 | 563 ft | 9 kts | 146° |
| 2026-05-04 09:56 | 55.40293 | 37.89761 | 562 ft | 9 kts | 146° |
| 2026-05-04 09:56 | 55.40239 | 37.89826 | 563 ft | 14 kts | 145° |
| 2026-05-04 09:57 | 55.40148 | 37.89935 | 556 ft | 16 kts | 146° |
| 2026-05-04 09:57 | 55.40060 | 37.90041 | 562 ft | 15 kts | 146° |
| 2026-05-04 09:57 | 55.39973 | 37.90145 | 552 ft | 15 kts | 146° |
| 2026-05-04 09:57 | 55.39893 | 37.90241 | 550 ft | 14 kts | 146° |
| 2026-05-04 09:58 | 55.39829 | 37.90318 | 553 ft | 11 kts | 146° |
| 2026-05-04 09:58 | 55.39770 | 37.90390 | 551 ft | 10 kts | 146° |
| 2026-05-04 09:58 | 55.39713 | 37.90458 | 546 ft | 10 kts | 146° |
| 2026-05-04 10:00 | 55.39547 | 37.90294 | 542 ft | 0 kts | 326° |
| 2026-05-04 10:00 | 55.39676 | 37.90139 | 545 ft | 58 kts | 325° |
| 2026-05-04 10:02 | 55.44893 | 37.81740 | 3767 ft | 160 kts | 308° |
| 2026-05-04 10:04 | 55.41315 | 37.67284 | 7197 ft | 286 kts | 189° |
| 2026-05-04 10:04 | 55.39323 | 37.67859 | 7938 ft | 300 kts | 156° |
| 2026-05-04 10:04 | 55.37651 | 37.70099 | 8713 ft | 306 kts | 137° |
| 2026-05-04 10:04 | 55.36218 | 37.72681 | 9502 ft | 309 kts | 133° |
| 2026-05-04 10:05 | 55.34770 | 37.75498 | 10241 ft | 314 kts | 132° |
| 2026-05-04 10:05 | 55.33179 | 37.78315 | 10578 ft | 332 kts | 137° |
| 2026-05-04 10:05 | 55.31534 | 37.80972 | 11197 ft | 338 kts | 139° |
| 2026-05-04 10:05 | 55.29792 | 37.83698 | 11897 ft | 342 kts | 139° |
| 2026-05-04 10:06 | 55.27982 | 37.86465 | 12601 ft | 346 kts | 140° |
| 2026-05-04 10:06 | 55.26147 | 37.89232 | 13306 ft | 349 kts | 140° |
| 2026-05-04 10:06 | 55.24290 | 37.92022 | 13946 ft | 353 kts | 140° |
| 2026-05-04 10:08 | 55.12983 | 38.09064 | 17597 ft | 370 kts | 139° |
| 2026-05-04 10:08 | 55.11026 | 38.12011 | 18204 ft | 373 kts | 139° |
| 2026-05-04 10:08 | 55.09056 | 38.14973 | 18719 ft | 375 kts | 139° |
| 2026-05-04 10:08 | 55.07069 | 38.17959 | 19248 ft | 378 kts | 139° |
| 2026-05-04 10:09 | 55.05068 | 38.20958 | 19763 ft | 380 kts | 139° |
| 2026-05-04 10:09 | 55.03053 | 38.23970 | 20288 ft | 383 kts | 140° |
| 2026-05-04 10:09 | 55.01018 | 38.27010 | 20793 ft | 385 kts | 139° |
| 2026-05-04 10:09 | 54.98973 | 38.30060 | 21337 ft | 387 kts | 139° |
| 2026-05-04 10:10 | 54.96920 | 38.33120 | 21847 ft | 389 kts | 139° |
| 2026-05-04 10:10 | 54.94851 | 38.36199 | 22331 ft | 392 kts | 139° |
| 2026-05-04 10:10 | 54.92791 | 38.39254 | 22809 ft | 395 kts | 139° |
| 2026-05-04 10:10 | 54.90743 | 38.42280 | 23274 ft | 397 kts | 139° |
| 2026-05-04 10:11 | 54.88625 | 38.45404 | 23702 ft | 400 kts | 139° |
| 2026-05-04 10:11 | 54.86501 | 38.48551 | 24088 ft | 402 kts | 139° |
| 2026-05-04 10:11 | 54.84363 | 38.51733 | 24480 ft | 405 kts | 139° |
| 2026-05-04 10:11 | 54.82221 | 38.54921 | 24867 ft | 407 kts | 139° |
| 2026-05-04 10:12 | 54.80061 | 38.58126 | 25262 ft | 409 kts | 139° |
| 2026-05-04 10:12 | 54.77914 | 38.61308 | 25627 ft | 412 kts | 139° |
| 2026-05-04 10:12 | 54.75645 | 38.64380 | 25978 ft | 416 kts | 146° |
| 2026-05-04 10:12 | 54.73157 | 38.67034 | 26107 ft | 424 kts | 148° |
| 2026-05-04 10:13 | 54.70600 | 38.69698 | 26241 ft | 433 kts | 148° |
| 2026-05-04 10:13 | 54.67988 | 38.72401 | 26369 ft | 441 kts | 149° |
| 2026-05-04 10:13 | 54.65337 | 38.75137 | 26487 ft | 448 kts | 149° |
| 2026-05-04 10:13 | 54.62644 | 38.77921 | 26617 ft | 455 kts | 148° |
| 2026-05-04 10:14 | 54.59971 | 38.80687 | 26799 ft | 460 kts | 148° |
| 2026-05-04 10:14 | 54.57248 | 38.83512 | 27072 ft | 463 kts | 148° |
| 2026-05-04 10:16 | 54.38778 | 39.05755 | 28979 ft | 473 kts | 125° |
| 2026-05-04 10:16 | 54.37059 | 39.10384 | 29231 ft | 473 kts | 116° |
| 2026-05-04 10:16 | 54.35721 | 39.15543 | 29570 ft | 471 kts | 110° |
| 2026-05-04 10:16 | 54.34506 | 39.20697 | 29955 ft | 470 kts | 110° |
| 2026-05-04 10:17 | 54.33371 | 39.25426 | 30225 ft | 470 kts | 110° |
| 2026-05-04 10:17 | 54.32099 | 39.30661 | 30510 ft | 470 kts | 111° |
| 2026-05-04 10:19 | 54.23295 | 39.66653 | 32552 ft | 469 kts | 111° |
| 2026-05-04 10:19 | 54.22029 | 39.71797 | 32843 ft | 469 kts | 111° |
| 2026-05-04 10:19 | 54.20774 | 39.76873 | 33125 ft | 469 kts | 111° |
| 2026-05-04 10:19 | 54.19499 | 39.82005 | 33423 ft | 469 kts | 111° |
| 2026-05-04 10:20 | 54.18226 | 39.87126 | 33716 ft | 468 kts | 111° |
| 2026-05-04 10:20 | 54.16953 | 39.92238 | 33985 ft | 468 kts | 111° |
| 2026-05-04 10:20 | 54.15693 | 39.97295 | 34231 ft | 468 kts | 111° |
| 2026-05-04 10:20 | 54.14417 | 40.02410 | 34485 ft | 468 kts | 111° |
| 2026-05-04 10:21 | 54.13525 | 40.05963 | 34663 ft | 468 kts | 112° |
| 2026-05-04 10:21 | 54.12268 | 40.10962 | 34864 ft | 468 kts | 111° |